Puno, Peru
Current Conditions -  °F | °C
As of 9:00 PM on Friday 24 Oct 2014 (Local Time) from SPJL Reporting Station
Clear Clear  
Wind Chill: 50°   Ceiling: Unl
Heat Index: 50°   Visibility: 6mi
Dew Point: 36°   Wind: 3mph
Humidity: 58%   Direction: 260°W
Pressure: 30.59"   Gusts: NA
Location:  15.84°S, 70.05°W
Report Text: SPJL 250200Z 26003KT CAVOK 10/02 Q1036 RMK PP000
Loading
Personal Weather Stations






























Interactive Weather Map
Tropical Storm Tracking
New forecast layout! Learn more

10-Day Weather Forecast

Advertisements
Track Severe Weather on mobile